Terminal Aerodrome Forecast
Issued by NWS Omaha/Valley, NE

Home | Current Version | Previous Version | Text Only | Print | Product List | Glossary Off
Versions: 1 2 3 4 5 6 7 8 9 10 11 12 13 14 15 16 17 18 19

000
FTUS43 KOAX 201415 AAA
TAFOFK
TAF AMD
KOFK 201415Z 2014/2112 36012KT 4SM -SHRA BR OVC007
     FM201600 01011KT 4SM BR VCSH BKN003 OVC008
     FM210100 31011KT P6SM OVC015=

USA.gov is the U.S. government's official web portal to all federal, state and local government web resources and services.